createdAt,value
2017-09-20T00:00:44.218Z,39.40
2017-09-20T00:03:12.529Z,41.30
2017-09-20T00:05:40.888Z,40.93
2017-09-20T00:08:09.247Z,38.83
2017-09-20T00:10:37.540Z,40.77
2017-09-20T00:13:06.590Z,39.57
2017-09-20T00:15:35.739Z,40.23
2017-09-20T00:18:04.047Z,41.77
2017-09-20T00:20:32.739Z,39.90
2017-09-20T00:23:01.094Z,46.47
2017-09-20T00:25:29.404Z,40.27
2017-09-20T00:27:58.467Z,36.53
2017-09-20T00:30:27.947Z,37.53
2017-09-20T00:32:57.375Z,39.00
2017-09-20T00:35:25.676Z,39.50
2017-09-20T00:37:54.427Z,37.93
2017-09-20T00:40:22.712Z,38.33
2017-09-20T00:42:52.134Z,37.90
2017-09-20T00:45:20.496Z,34.57
2017-09-20T00:47:48.784Z,39.87
2017-09-20T00:50:17.092Z,39.90
2017-09-20T00:52:45.561Z,39.50
2017-09-20T00:55:14.269Z,41.00
2017-09-20T00:57:43.354Z,37.40
2017-09-20T01:00:11.736Z,38.20
2017-09-20T01:02:41.386Z,41.23
2017-09-20T01:05:12.051Z,41.97
2017-09-20T01:07:41.739Z,40.43
2017-09-20T01:10:10.336Z,41.30
2017-09-20T01:12:39.058Z,37.73
2017-09-20T01:15:09.151Z,39.10
2017-09-20T01:17:38.353Z,40.83
2017-09-20T01:20:06.685Z,39.63
2017-09-20T01:25:32.069Z,37.47
2017-09-20T01:33:08.770Z,40.53
2017-09-20T01:35:37.066Z,40.50
2017-09-20T01:45:48.915Z,101.47
2017-09-20T01:53:25.599Z,40.90
2017-09-20T01:55:53.957Z,39.97
2017-09-20T01:58:23.600Z,40.50
2017-09-20T02:00:52.531Z,39.70
2017-09-20T02:03:22.406Z,42.50
2017-09-20T02:05:50.707Z,40.30
2017-09-20T02:08:20.143Z,37.93
2017-09-20T02:10:48.475Z,39.80
2017-09-20T02:13:16.788Z,40.37
2017-09-20T02:15:45.091Z,38.20
2017-09-20T02:18:14.219Z,39.60
2017-09-20T02:20:43.872Z,39.30
2017-09-20T02:23:13.403Z,36.30
2017-09-20T02:25:42.783Z,38.37
2017-09-20T02:28:12.591Z,36.70
2017-09-20T02:30:40.900Z,39.30
2017-09-20T02:33:10.789Z,38.60
2017-09-20T02:35:39.084Z,36.27
2017-09-20T02:38:07.367Z,39.50
2017-09-20T02:40:37.048Z,37.53
2017-09-20T02:43:05.219Z,37.23
2017-09-20T02:45:33.512Z,36.93
2017-09-20T02:48:03.194Z,39.00
2017-09-20T02:50:32.127Z,40.20
2017-09-20T02:53:00.426Z,37.97
2017-09-20T02:55:28.759Z,39.87
2017-09-20T02:57:57.046Z,40.20
2017-09-20T03:00:26.098Z,39.90
2017-09-20T03:02:55.194Z,38.00
2017-09-20T03:05:23.478Z,38.03
2017-09-20T03:07:52.526Z,35.20
2017-09-20T03:10:20.927Z,38.80
2017-09-20T03:12:49.202Z,37.67
2017-09-20T03:15:18.622Z,38.20
2017-09-20T03:17:46.995Z,35.97
2017-09-20T03:20:15.288Z,36.70
2017-09-20T03:22:43.583Z,36.60
2017-09-20T03:25:11.957Z,36.67
2017-09-20T03:27:41.601Z,39.53
2017-09-20T03:30:09.792Z,37.93
2017-09-20T03:32:38.164Z,40.70
2017-09-20T03:35:06.444Z,37.67
2017-09-20T03:37:36.229Z,38.30
2017-09-20T03:40:04.964Z,39.60
2017-09-20T03:42:34.014Z,40.17
2017-09-20T03:45:02.318Z,36.20
2017-09-20T03:47:32.182Z,36.97
2017-09-20T03:50:00.485Z,39.10
2017-09-20T03:52:30.283Z,38.10
2017-09-20T03:54:58.627Z,39.30
2017-09-20T03:57:26.910Z,41.27
2017-09-20T03:59:55.195Z,37.70
2017-09-20T04:02:23.543Z,35.87
2017-09-20T04:04:53.330Z,36.40
2017-09-20T04:07:21.614Z,36.80
2017-09-20T04:09:51.334Z,37.40
2017-09-20T04:12:19.504Z,37.30
2017-09-20T04:14:47.787Z,39.17
2017-09-20T04:17:16.138Z,35.80
2017-09-20T04:19:44.448Z,34.87
2017-09-20T04:22:13.884Z,36.37
2017-09-20T04:24:42.614Z,35.80
2017-09-20T04:27:12.055Z,38.40
2017-09-20T04:29:41.114Z,37.90
2017-09-20T04:32:09.447Z,36.93
2017-09-20T04:34:38.126Z,35.37
2017-09-20T04:37:07.766Z,37.43
2017-09-20T04:39:36.735Z,37.50
2017-09-20T04:42:05.019Z,37.70
2017-09-20T04:44:33.298Z,35.83
2017-09-20T04:47:02.999Z,35.73
2017-09-20T04:49:31.172Z,40.20
2017-09-20T04:51:59.469Z,37.20
2017-09-20T04:54:28.186Z,37.47
2017-09-20T04:56:57.603Z,37.17
2017-09-20T04:59:25.887Z,33.50
2017-09-20T05:01:54.235Z,36.57
2017-09-20T05:04:22.519Z,35.43
2017-09-20T05:06:50.800Z,37.40
2017-09-20T05:09:19.144Z,36.47
2017-09-20T05:11:47.814Z,34.90
2017-09-20T05:14:16.105Z,35.30
2017-09-20T05:16:44.434Z,37.40
2017-09-20T05:19:12.732Z,38.53
2017-09-20T05:21:41.028Z,35.87
2017-09-20T05:24:10.531Z,37.97
2017-09-20T05:26:38.815Z,37.77
2017-09-20T05:29:07.103Z,37.47
2017-09-20T05:31:35.439Z,37.27
2017-09-20T05:34:03.731Z,39.27
2017-09-20T05:36:32.027Z,39.87
2017-09-20T05:39:01.874Z,39.90
2017-09-20T05:41:30.171Z,39.47
2017-09-20T05:43:59.972Z,40.00
2017-09-20T05:46:28.299Z,38.50
2017-09-20T05:48:56.583Z,39.20
2017-09-20T05:51:25.634Z,42.10
2017-09-20T05:53:53.963Z,43.97
2017-09-20T05:56:23.750Z,39.50
2017-09-20T05:58:52.058Z,42.90
2017-09-20T06:01:20.799Z,41.17
2017-09-20T06:03:49.087Z,44.40
2017-09-20T06:06:18.883Z,42.87
2017-09-20T06:08:47.230Z,42.20
2017-09-20T06:11:16.659Z,43.80
2017-09-20T06:13:45.347Z,43.20
2017-09-20T06:16:15.037Z,48.50
2017-09-20T06:18:43.222Z,45.50
2017-09-20T06:21:11.913Z,48.63
2017-09-20T06:23:40.250Z,46.63
2017-09-20T06:26:09.307Z,49.60
2017-09-20T06:28:38.360Z,47.37
2017-09-20T06:31:06.712Z,46.33
2017-09-20T06:33:36.347Z,47.97
2017-09-20T06:36:04.898Z,49.23
2017-09-20T06:38:34.009Z,51.87
2017-09-20T06:41:02.313Z,52.07
2017-09-20T06:43:30.591Z,51.87
2017-09-20T06:45:58.934Z,48.20
2017-09-20T06:48:27.220Z,50.20
2017-09-20T06:50:55.503Z,53.10
2017-09-20T06:53:24.590Z,52.23
2017-09-20T06:55:52.874Z,52.30
2017-09-20T06:58:21.163Z,52.03
2017-09-20T07:00:49.546Z,55.77
2017-09-20T07:03:17.839Z,55.57
2017-09-20T07:05:46.141Z,52.30
2017-09-20T07:08:15.982Z,52.47
2017-09-20T07:10:45.418Z,52.83
2017-09-20T07:13:14.492Z,53.97
2017-09-20T07:15:43.132Z,53.63
2017-09-20T07:18:12.675Z,50.97
2017-09-20T07:20:41.753Z,52.40
2017-09-20T07:23:10.075Z,50.87
2017-09-20T07:25:38.358Z,53.47
2017-09-20T07:28:06.648Z,52.30
2017-09-20T07:30:34.976Z,51.50
2017-09-20T07:33:03.258Z,48.60
2017-09-20T07:35:32.302Z,48.00
2017-09-20T07:38:00.660Z,48.13
2017-09-20T07:40:28.943Z,46.70
2017-09-20T07:42:57.230Z,44.33
2017-09-20T07:45:25.710Z,42.73
2017-09-20T07:47:53.991Z,44.00
2017-09-20T07:50:23.039Z,45.10
2017-09-20T07:52:51.396Z,46.27
2017-09-20T07:55:20.438Z,45.67
2017-09-20T07:57:49.504Z,45.40
2017-09-20T08:00:18.376Z,40.50
2017-09-20T08:02:47.832Z,42.87
2017-09-20T08:05:17.640Z,46.50
2017-09-20T08:07:45.979Z,43.07
2017-09-20T08:10:14.277Z,46.27
2017-09-20T08:12:44.070Z,45.83
2017-09-20T08:15:13.170Z,43.37
2017-09-20T08:17:42.590Z,44.43
2017-09-20T08:20:10.893Z,44.13
2017-09-20T08:22:39.231Z,42.20
2017-09-20T08:25:08.808Z,39.83
2017-09-20T08:27:38.435Z,40.00
2017-09-20T08:30:08.151Z,40.47
2017-09-20T08:32:36.836Z,36.60
2017-09-20T08:35:06.251Z,38.83
2017-09-20T08:37:35.379Z,39.27
2017-09-20T08:40:03.659Z,34.97
2017-09-20T08:42:32.711Z,34.60
2017-09-20T08:45:02.000Z,35.40
2017-09-20T08:47:30.293Z,38.50
2017-09-20T08:49:58.579Z,38.40
2017-09-20T08:52:28.059Z,36.63
2017-09-20T08:54:56.342Z,36.47
2017-09-20T08:57:24.618Z,31.90
2017-09-20T08:59:52.946Z,31.50
2017-09-20T09:02:21.231Z,32.13
2017-09-20T09:04:49.507Z,33.33
2017-09-20T09:07:19.209Z,33.50
2017-09-20T09:09:47.357Z,32.67
2017-09-20T09:12:15.652Z,31.13
2017-09-20T09:14:45.142Z,30.20
2017-09-20T09:17:14.199Z,31.00
2017-09-20T09:19:43.843Z,28.33
2017-09-20T09:22:13.562Z,30.47
2017-09-20T09:24:41.859Z,29.73
2017-09-20T09:27:11.302Z,30.30
2017-09-20T09:29:39.642Z,28.90
2017-09-20T09:32:07.931Z,28.43
2017-09-20T09:34:36.215Z,28.00
2017-09-20T09:37:04.547Z,27.60
2017-09-20T09:39:32.835Z,26.17
2017-09-20T09:42:01.122Z,26.47
2017-09-20T09:44:30.611Z,26.50
2017-09-20T09:47:00.259Z,25.30
2017-09-20T09:49:29.196Z,28.43
2017-09-20T09:51:58.896Z,27.10
2017-09-20T09:54:27.455Z,27.23
2017-09-20T09:56:56.875Z,25.27
2017-09-20T09:59:26.710Z,21.80
2017-09-20T10:01:54.996Z,14.80
2017-09-20T10:04:24.626Z,16.00
2017-09-20T10:06:53.287Z,14.80
2017-09-20T10:09:21.566Z,12.90
2017-09-20T10:11:49.851Z,11.73
2017-09-20T10:14:18.195Z,12.40
2017-09-20T10:16:46.474Z,11.27
2017-09-20T10:19:15.908Z,13.53
2017-09-20T10:21:44.263Z,13.30
2017-09-20T10:24:13.910Z,13.53
2017-09-20T10:26:43.414Z,11.73
2017-09-20T10:29:12.765Z,12.00
2017-09-20T10:31:42.207Z,11.97
2017-09-20T10:34:11.280Z,12.37
2017-09-20T10:36:39.602Z,12.23
2017-09-20T10:39:08.647Z,12.30
2017-09-20T10:41:37.699Z,13.20
2017-09-20T10:44:06.790Z,7.87
2017-09-20T10:46:35.070Z,10.13
2017-09-20T10:49:04.710Z,10.97
2017-09-20T10:51:33.334Z,11.40
2017-09-20T10:54:01.616Z,9.73
2017-09-20T10:56:29.902Z,10.77
2017-09-20T10:58:58.232Z,10.13
2017-09-20T11:01:26.522Z,10.43
2017-09-20T11:03:54.798Z,9.70
2017-09-20T11:06:24.491Z,9.80
2017-09-20T11:08:54.033Z,9.07
2017-09-20T11:11:22.587Z,11.10
2017-09-20T11:13:52.267Z,8.50
2017-09-20T11:16:21.173Z,7.07
2017-09-20T11:18:50.810Z,9.53
2017-09-20T11:21:20.555Z,9.60
2017-09-20T11:23:50.187Z,9.80
2017-09-20T11:26:18.732Z,8.47
2017-09-20T11:28:47.055Z,7.23
2017-09-20T11:31:15.347Z,8.70
2017-09-20T11:33:43.633Z,7.27
2017-09-20T11:36:12.002Z,5.80
2017-09-20T11:38:41.412Z,6.67
2017-09-20T11:41:09.683Z,4.90
2017-09-20T11:43:38.003Z,4.60
2017-09-20T11:46:06.270Z,5.50
2017-09-20T11:48:34.545Z,6.63
2017-09-20T11:51:02.867Z,5.50
2017-09-20T11:53:32.648Z,6.33
2017-09-20T11:56:02.258Z,6.40
2017-09-20T11:58:31.238Z,5.33
2017-09-20T12:01:00.294Z,5.10
2017-09-20T12:03:30.510Z,4.50
2017-09-20T12:06:00.195Z,4.43
2017-09-20T12:08:28.747Z,3.83
2017-09-20T12:10:57.022Z,4.60
2017-09-20T12:13:26.518Z,4.70
2017-09-20T12:15:55.559Z,4.43
2017-09-20T12:18:23.827Z,4.43
2017-09-20T12:20:52.146Z,4.10
2017-09-20T12:23:21.186Z,3.50
2017-09-20T12:25:49.454Z,3.80
2017-09-20T12:28:18.563Z,3.40
2017-09-20T12:30:48.197Z,3.43
2017-09-20T12:33:16.735Z,4.20
2017-09-20T12:35:45.066Z,4.30
2017-09-20T12:38:14.710Z,4.60
2017-09-20T12:40:42.874Z,4.53
2017-09-20T12:43:11.221Z,4.00
2017-09-20T12:45:40.265Z,3.93
2017-09-20T12:48:09.901Z,5.10
2017-09-20T12:50:38.491Z,5.87
2017-09-20T12:53:06.767Z,5.23
2017-09-20T12:55:35.044Z,5.20
2017-09-20T12:58:04.862Z,5.00
2017-09-20T13:00:33.129Z,4.70
2017-09-20T13:03:01.420Z,4.00
2017-09-20T13:05:30.130Z,3.57
2017-09-20T13:07:59.540Z,3.47
2017-09-20T13:10:28.207Z,3.17
2017-09-20T13:12:59.211Z,2.80
2017-09-20T13:15:28.629Z,3.70
2017-09-20T13:17:58.407Z,3.57
2017-09-20T13:20:28.094Z,4.23
2017-09-20T13:22:57.007Z,4.07
2017-09-20T13:25:26.051Z,4.23
2017-09-20T13:27:55.507Z,4.30
2017-09-20T13:30:24.547Z,3.70
2017-09-20T13:32:52.823Z,4.30
2017-09-20T13:35:21.160Z,4.53
2017-09-20T13:37:49.466Z,4.43
2017-09-20T13:40:18.910Z,3.43
2017-09-20T13:42:47.245Z,5.20
2017-09-20T13:45:15.539Z,6.23
2017-09-20T13:47:43.823Z,4.70
2017-09-20T13:50:12.207Z,4.87
2017-09-20T13:52:41.699Z,4.80
2017-09-20T13:55:09.994Z,5.60
2017-09-20T13:57:39.665Z,4.70
2017-09-20T14:00:08.592Z,5.10
2017-09-20T14:02:37.619Z,4.40
2017-09-20T14:05:05.941Z,4.43
2017-09-20T14:07:34.983Z,4.73
2017-09-20T14:10:04.023Z,4.03
2017-09-20T14:12:34.367Z,5.53
2017-09-20T14:15:03.987Z,4.10
2017-09-20T14:17:32.530Z,5.40
2017-09-20T14:20:01.648Z,5.90
2017-09-20T14:22:30.692Z,5.93
2017-09-20T14:24:59.757Z,5.33
2017-09-20T14:27:28.071Z,4.97
2017-09-20T14:29:57.851Z,5.17
2017-09-20T14:32:27.635Z,5.47
2017-09-20T14:34:57.334Z,5.10
2017-09-20T14:37:25.887Z,5.30
2017-09-20T14:39:55.519Z,4.77
2017-09-20T14:42:23.759Z,4.80
2017-09-20T14:44:52.488Z,5.00
2017-09-20T14:47:20.812Z,5.10
2017-09-20T14:49:49.250Z,4.90
2017-09-20T14:52:18.027Z,5.40
2017-09-20T14:54:47.078Z,5.37
2017-09-20T14:57:16.186Z,5.60
2017-09-20T14:59:44.492Z,4.87
2017-09-20T15:02:12.793Z,4.47
2017-09-20T15:04:41.158Z,4.67
2017-09-20T15:07:10.576Z,5.23
2017-09-20T15:09:39.016Z,4.60
2017-09-20T15:12:07.802Z,4.33
2017-09-20T15:14:37.602Z,5.70
2017-09-20T15:17:05.956Z,6.37
2017-09-20T15:19:35.796Z,6.23
2017-09-20T15:22:04.423Z,6.03
2017-09-20T15:24:33.487Z,6.80
2017-09-20T15:27:02.727Z,7.10
2017-09-20T15:29:31.786Z,5.60
2017-09-20T15:32:01.009Z,6.80
2017-09-20T15:34:30.173Z,5.67
2017-09-20T15:36:58.596Z,5.77
2017-09-20T15:39:28.019Z,6.67
2017-09-20T15:41:56.339Z,7.63
2017-09-20T15:44:25.173Z,7.10
2017-09-20T15:46:53.456Z,6.90
2017-09-20T15:49:21.878Z,6.20
2017-09-20T15:51:50.972Z,6.37
2017-09-20T15:54:19.647Z,7.10
2017-09-20T15:56:49.487Z,6.23
2017-09-20T15:59:17.807Z,5.90
2017-09-20T16:01:46.143Z,5.80
2017-09-20T16:04:16.030Z,5.73
2017-09-20T16:06:45.481Z,6.37
2017-09-20T16:09:15.311Z,6.83
2017-09-20T16:11:43.707Z,7.43
2017-09-20T16:14:12.762Z,6.90
2017-09-20T16:16:41.122Z,6.90
2017-09-20T16:19:09.876Z,6.87
2017-09-20T16:21:39.518Z,5.30
2017-09-20T16:24:08.148Z,6.70
2017-09-20T16:26:36.620Z,6.37
2017-09-20T16:29:04.911Z,8.37
2017-09-20T16:31:34.551Z,7.70
2017-09-20T16:34:03.158Z,6.07
2017-09-20T16:36:31.448Z,6.43
2017-09-20T16:38:59.742Z,4.90
2017-09-20T16:41:28.062Z,5.30
2017-09-20T16:43:57.686Z,5.60
2017-09-20T16:46:25.838Z,5.47
2017-09-20T16:48:54.167Z,5.80
2017-09-20T16:51:23.207Z,5.50
2017-09-20T16:53:52.631Z,6.47
2017-09-20T16:56:21.735Z,5.33
2017-09-20T16:58:50.011Z,6.57
2017-09-20T17:01:18.286Z,6.00
2017-09-20T17:03:48.134Z,7.53
2017-09-20T17:06:16.415Z,6.80
2017-09-20T17:08:44.707Z,5.00
2017-09-20T17:11:13.044Z,6.40
2017-09-20T17:13:41.348Z,5.67
2017-09-20T17:16:11.158Z,5.83
2017-09-20T17:18:39.470Z,5.27
2017-09-20T17:21:07.748Z,5.60
2017-09-20T17:23:36.033Z,6.50
2017-09-20T17:26:05.487Z,6.87
2017-09-20T17:28:33.767Z,5.60
2017-09-20T17:31:02.053Z,6.10
2017-09-20T17:33:30.376Z,4.97
2017-09-20T17:35:58.663Z,5.33
2017-09-20T17:38:27.340Z,4.60
2017-09-20T17:40:56.431Z,5.50
2017-09-20T17:43:26.064Z,5.50
2017-09-20T17:45:54.213Z,6.60
2017-09-20T17:48:22.539Z,6.10
2017-09-20T17:50:52.331Z,5.70
2017-09-20T17:53:22.149Z,6.70
2017-09-20T17:55:50.463Z,5.63
2017-09-20T17:58:18.750Z,6.00
2017-09-20T18:00:48.571Z,5.20
2017-09-20T18:03:18.234Z,6.40
2017-09-20T18:05:47.158Z,6.97
2017-09-20T18:08:16.823Z,6.57
2017-09-20T18:10:45.809Z,6.53
2017-09-20T18:13:14.155Z,7.50
2017-09-20T18:15:43.831Z,6.63
2017-09-20T18:18:12.420Z,8.13
2017-09-20T18:20:41.487Z,7.67
2017-09-20T18:23:09.814Z,7.00
2017-09-20T18:25:38.162Z,8.90
2017-09-20T18:28:06.446Z,8.00
2017-09-20T18:30:34.724Z,8.10
2017-09-20T18:33:03.047Z,8.40
2017-09-20T18:35:34.218Z,8.10
2017-09-20T18:38:04.217Z,9.00
2017-09-20T18:40:34.719Z,8.80
2017-09-20T18:43:03.043Z,9.90
2017-09-20T18:45:31.378Z,8.83
2017-09-20T18:48:01.253Z,8.83
2017-09-20T18:50:29.631Z,9.30
2017-09-20T18:52:59.106Z,10.60
2017-09-20T18:55:27.863Z,9.77
2017-09-20T18:57:56.206Z,10.23
2017-09-20T19:00:25.595Z,10.50
2017-09-20T19:02:55.416Z,10.87
2017-09-20T19:05:23.702Z,11.43
2017-09-20T19:07:52.069Z,12.60
2017-09-20T19:10:21.714Z,14.70
2017-09-20T19:12:49.990Z,13.80
2017-09-20T19:15:18.374Z,14.03
2017-09-20T19:17:46.656Z,13.73
2017-09-20T19:20:14.961Z,13.53
2017-09-20T19:22:43.367Z,13.60
2017-09-20T19:25:12.965Z,13.33
2017-09-20T19:27:42.614Z,14.30
2017-09-20T19:30:12.210Z,12.83
2017-09-20T19:32:40.842Z,14.13
2017-09-20T19:35:11.227Z,13.63
2017-09-20T19:37:39.987Z,13.37
2017-09-20T19:40:09.118Z,11.53
2017-09-20T19:42:37.484Z,13.77
2017-09-20T19:45:05.815Z,13.70
2017-09-20T19:47:35.454Z,13.80
2017-09-20T19:50:03.626Z,13.80
2017-09-20T19:52:32.020Z,12.33
2017-09-20T19:55:00.337Z,11.73
2017-09-20T19:57:28.627Z,12.63
2017-09-20T19:59:56.962Z,11.50
2017-09-20T20:02:26.466Z,12.60
2017-09-20T20:04:54.798Z,13.00
2017-09-20T20:07:23.228Z,10.60
2017-09-20T20:09:51.566Z,10.80
2017-09-20T20:12:21.212Z,12.77
2017-09-20T20:14:49.762Z,10.83
2017-09-20T20:17:18.860Z,11.17
2017-09-20T20:19:48.714Z,12.83
2017-09-20T20:22:17.247Z,11.40
2017-09-20T20:24:47.295Z,12.60
2017-09-20T20:27:17.182Z,12.37
2017-09-20T20:29:45.715Z,11.83
2017-09-20T20:32:14.068Z,10.53
2017-09-20T20:34:42.454Z,12.00
2017-09-20T20:37:11.769Z,11.73
2017-09-20T20:39:40.250Z,10.60
2017-09-20T20:42:08.613Z,9.53
2017-09-20T20:44:38.258Z,11.47
2017-09-20T20:47:06.726Z,10.50
2017-09-20T20:49:35.090Z,10.30
2017-09-20T20:52:04.802Z,10.80
2017-09-20T20:54:33.001Z,10.33
2017-09-20T20:57:01.518Z,11.00
2017-09-20T20:59:30.060Z,10.40
2017-09-20T21:01:58.786Z,10.03
2017-09-20T21:04:27.963Z,11.53
2017-09-20T21:06:57.090Z,11.50
2017-09-20T21:09:25.438Z,10.73
2017-09-20T21:11:53.798Z,11.77
2017-09-20T21:14:23.327Z,10.70
2017-09-20T21:16:53.111Z,10.13
2017-09-20T21:19:21.483Z,11.27
2017-09-20T21:21:49.803Z,11.37
2017-09-20T21:24:18.140Z,12.63
2017-09-20T21:26:46.507Z,11.90
2017-09-20T21:29:14.908Z,11.50
2017-09-20T21:31:44.784Z,11.10
2017-09-20T21:34:14.445Z,10.40
2017-09-20T21:36:43.063Z,10.67
2017-09-20T21:39:12.769Z,12.47
2017-09-20T21:41:41.426Z,12.30
2017-09-20T21:44:10.598Z,12.43
2017-09-20T21:46:38.886Z,12.97
2017-09-20T21:49:07.256Z,13.53
2017-09-20T21:51:36.339Z,14.33
2017-09-20T21:54:05.027Z,12.70
2017-09-20T21:56:33.339Z,12.77
2017-09-20T21:59:01.663Z,13.90
2017-09-20T22:01:29.964Z,14.37
2017-09-20T22:03:58.295Z,13.70
2017-09-20T22:06:26.618Z,12.10
2017-09-20T22:08:56.255Z,12.20
2017-09-20T22:11:24.455Z,12.43
2017-09-20T22:13:52.780Z,11.67
2017-09-20T22:16:34.959Z,12.27
2017-09-20T22:19:20.956Z,11.57
2017-09-20T22:22:06.970Z,10.10
2017-09-20T22:24:54.260Z,12.30
2017-09-20T22:27:28.523Z,12.00
2017-09-20T22:29:56.614Z,12.40
2017-09-20T22:32:24.907Z,13.60
2017-09-20T22:34:53.211Z,12.40
2017-09-20T22:37:23.043Z,13.30
2017-09-20T22:39:51.322Z,11.87
2017-09-20T22:42:19.656Z,13.10
2017-09-20T22:44:47.975Z,12.83
2017-09-20T22:47:17.615Z,14.33
2017-09-20T22:49:46.583Z,15.63
2017-09-20T22:52:16.270Z,15.67
2017-09-20T22:54:44.451Z,16.97
2017-09-20T22:57:12.746Z,13.87
2017-09-20T22:59:41.867Z,13.57
2017-09-20T23:02:10.942Z,12.37
2017-09-20T23:04:40.375Z,13.60
2017-09-20T23:07:10.216Z,11.90
2017-09-20T23:09:38.498Z,11.20
2017-09-20T23:12:08.133Z,13.07
2017-09-20T23:14:36.770Z,12.37
2017-09-20T23:17:05.055Z,12.30
2017-09-20T23:19:33.344Z,11.00
2017-09-20T23:22:01.712Z,10.97
2017-09-20T23:24:30.018Z,11.40
2017-09-20T23:26:58.303Z,11.17
2017-09-20T23:29:27.408Z,12.87
2017-09-20T23:31:55.687Z,11.87
2017-09-20T23:34:23.984Z,12.00
2017-09-20T23:36:52.319Z,13.47
2017-09-20T23:39:20.607Z,14.20
2017-09-20T23:41:48.889Z,12.47
2017-09-20T23:44:18.570Z,13.37
2017-09-20T23:46:47.146Z,13.73
2017-09-20T23:49:16.243Z,12.90
2017-09-20T23:51:44.584Z,13.17
2017-09-20T23:54:12.883Z,13.10
2017-09-20T23:56:41.175Z,12.07
2017-09-20T23:59:10.679Z,10.73
